createdAt,value
2023-02-16T00:00:17.994Z,88.54
2023-02-16T00:05:42.095Z,88.58
2023-02-16T00:11:06.619Z,88.21
2023-02-16T00:16:21.754Z,88.86
2023-02-16T00:21:28.320Z,89.05
2023-02-16T00:26:34.725Z,89.68
2023-02-16T00:31:38.516Z,89.67
2023-02-16T00:36:42.346Z,88.89
2023-02-16T00:41:54.386Z,87.08
2023-02-16T00:47:01.577Z,86.79
2023-02-16T00:52:37.925Z,88.23
2023-02-16T00:57:48.140Z,88.22
2023-02-16T01:02:53.906Z,87.29
2023-02-16T01:08:17.624Z,87.05
2023-02-16T01:13:21.400Z,87.14
2023-02-16T01:18:25.057Z,86.35
2023-02-16T01:23:29.804Z,86.24
2023-02-16T01:28:39.711Z,86.69
2023-02-16T01:33:43.727Z,87.47
2023-02-16T01:38:47.437Z,87.78
2023-02-16T01:43:59.631Z,87.17
2023-02-16T01:49:03.278Z,87.39
2023-02-16T01:54:23.567Z,87.05
2023-02-16T01:59:50.389Z,86.42
2023-02-16T02:05:38.644Z,86.58
2023-02-16T02:10:55.788Z,86.75
2023-02-16T02:16:00.489Z,87.59
2023-02-16T02:21:55.979Z,87.85
2023-02-16T02:27:11.920Z,87.44
2023-02-16T02:32:47.560Z,87.44
2023-02-16T02:38:24.438Z,87.90
2023-02-16T02:43:53.176Z,87.96
2023-02-16T02:48:58.483Z,88.24
2023-02-16T02:54:26.756Z,89.04
2023-02-16T02:59:56.409Z,89.53
2023-02-16T03:05:02.938Z,88.40
2023-02-16T03:10:27.152Z,88.28
2023-02-16T03:15:31.837Z,87.32
2023-02-16T03:20:54.184Z,87.41
2023-02-16T03:26:16.427Z,88.43
2023-02-16T03:31:28.245Z,90.27
2023-02-16T03:36:35.035Z,89.36
2023-02-16T03:41:50.159Z,88.46
2023-02-16T03:46:54.002Z,88.34
2023-02-16T03:51:57.661Z,87.81
2023-02-16T03:57:01.297Z,87.85
2023-02-16T04:02:05.675Z,88.94
2023-02-16T04:07:09.518Z,88.87
2023-02-16T04:12:32.317Z,87.42
2023-02-16T04:17:37.364Z,87.82
2023-02-16T04:22:41.755Z,88.39
2023-02-16T04:27:46.306Z,88.69
2023-02-16T04:32:50.226Z,88.57
2023-02-16T04:37:53.885Z,88.61
2023-02-16T04:42:58.571Z,88.45
2023-02-16T04:48:02.142Z,87.63
2023-02-16T04:53:05.826Z,87.59
2023-02-16T04:58:09.570Z,87.06
2023-02-16T05:03:13.304Z,86.54
2023-02-16T05:08:20.723Z,86.73
2023-02-16T05:13:43.232Z,86.65
2023-02-16T05:18:47.191Z,86.95
2023-02-16T05:23:50.892Z,87.29
2023-02-16T05:28:55.110Z,87.62
2023-02-16T05:33:58.870Z,87.74
2023-02-16T05:39:02.664Z,87.89
2023-02-16T05:44:09.247Z,88.23
2023-02-16T05:49:14.606Z,88.81
2023-02-16T05:54:18.619Z,88.51
2023-02-16T05:59:22.358Z,88.02
2023-02-16T06:04:26.183Z,88.04
2023-02-16T06:09:32.390Z,88.19
2023-02-16T06:14:36.160Z,87.90
2023-02-16T06:19:39.830Z,88.00
2023-02-16T06:24:43.501Z,88.24
2023-02-16T06:29:47.110Z,88.23
2023-02-16T06:34:50.803Z,88.21
2023-02-16T06:39:54.542Z,87.63
2023-02-16T06:44:58.130Z,87.44
2023-02-16T06:50:02.259Z,86.86
2023-02-16T06:55:07.013Z,87.15
2023-02-16T07:00:11.031Z,86.53
2023-02-16T07:05:14.903Z,86.57
2023-02-16T07:10:20.450Z,86.87
2023-02-16T07:15:24.145Z,87.46
2023-02-16T07:20:30.940Z,87.72
2023-02-16T07:25:36.130Z,87.64
2023-02-16T07:30:41.417Z,87.81
2023-02-16T07:35:45.214Z,87.80
2023-02-16T07:40:48.869Z,87.95
2023-02-16T07:45:52.983Z,87.94
2023-02-16T07:50:56.977Z,87.94
2023-02-16T07:56:00.751Z,87.68
2023-02-16T08:01:10.718Z,87.36
2023-02-16T08:06:15.800Z,87.52
2023-02-16T08:11:24.746Z,87.27
2023-02-16T08:16:29.808Z,86.96
2023-02-16T08:21:34.767Z,86.57
2023-02-16T08:26:41.365Z,86.32
2023-02-16T08:31:47.530Z,85.88
2023-02-16T08:36:57.092Z,86.00
2023-02-16T08:42:02.186Z,85.48
2023-02-16T08:47:12.536Z,85.37
2023-02-16T08:52:17.517Z,85.12
2023-02-16T08:57:22.837Z,84.59
2023-02-16T09:02:26.579Z,84.35
2023-02-16T09:07:37.270Z,83.43
2023-02-16T09:12:41.251Z,83.26
2023-02-16T09:17:45.081Z,82.33
2023-02-16T09:22:48.844Z,82.53
2023-02-16T09:27:53.523Z,82.50
2023-02-16T09:33:00.841Z,82.32
2023-02-16T09:38:04.963Z,81.06
2023-02-16T09:43:59.028Z,81.02
2023-02-16T09:49:15.633Z,78.53
2023-02-16T09:54:37.244Z,77.82
2023-02-16T09:59:59.704Z,74.86
2023-02-16T10:05:13.381Z,74.09
2023-02-16T10:10:35.604Z,71.56
2023-02-16T10:15:41.199Z,71.48
2023-02-16T10:20:47.675Z,70.35
2023-02-16T10:25:57.951Z,70.82
2023-02-16T10:31:06.410Z,69.92
2023-02-16T10:36:32.546Z,68.88
2023-02-16T10:41:46.548Z,67.83
2023-02-16T10:47:04.469Z,67.78
2023-02-16T10:52:08.869Z,66.37
2023-02-16T10:57:34.937Z,67.97
2023-02-16T11:02:48.126Z,67.07
2023-02-16T11:07:58.993Z,67.19
2023-02-16T11:13:06.181Z,67.86
2023-02-16T11:18:30.853Z,63.23
2023-02-16T11:24:05.336Z,65.54
2023-02-16T11:29:34.804Z,65.80
2023-02-16T11:35:16.225Z,66.27
2023-02-16T17:00:20.586Z,72.25
2023-02-16T17:05:27.257Z,72.70
2023-02-16T17:10:35.872Z,73.12
2023-02-16T17:15:48.903Z,73.49
2023-02-16T17:20:55.205Z,73.97
2023-02-16T17:26:00.531Z,74.33
2023-02-16T17:32:18.715Z,74.79
2023-02-16T17:38:11.033Z,74.77
2023-02-16T17:57:59.964Z,75.45
2023-02-16T18:03:07.153Z,75.93
2023-02-16T18:15:04.360Z,76.41
2023-02-16T18:20:14.889Z,76.67
2023-02-16T18:25:28.292Z,76.90
2023-02-16T18:30:48.448Z,76.74
2023-02-16T18:35:58.669Z,76.90
2023-02-16T18:41:04.248Z,77.21
2023-02-16T18:46:12.398Z,77.50
2023-02-16T18:51:18.816Z,77.75
2023-02-16T18:56:31.660Z,77.61
2023-02-16T19:01:37.147Z,77.62
2023-02-16T19:07:38.594Z,77.49
2023-02-16T19:12:44.320Z,78.03
2023-02-16T19:17:51.065Z,78.47
2023-02-16T19:22:57.707Z,78.41
2023-02-16T19:28:10.589Z,78.12
2023-02-16T19:33:19.842Z,78.15
2023-02-16T19:38:25.448Z,77.89
2023-02-16T19:43:30.369Z,78.47
2023-02-16T19:48:37.902Z,78.00
2023-02-16T19:53:47.253Z,78.15
2023-02-16T19:58:55.415Z,78.20
2023-02-16T20:04:03.774Z,77.91
2023-02-16T20:09:14.741Z,78.00
2023-02-16T20:14:25.853Z,78.06
2023-02-16T20:19:36.270Z,78.06
2023-02-16T20:24:42.474Z,78.09
2023-02-16T20:29:47.650Z,78.06
2023-02-16T20:34:56.512Z,78.04
2023-02-16T20:40:02.656Z,78.13
2023-02-16T20:45:10.041Z,78.19
2023-02-16T20:50:17.383Z,78.14
2023-02-16T20:55:22.866Z,78.23
2023-02-16T21:51:38.517Z,78.57
2023-02-16T21:57:30.802Z,78.98
2023-02-16T22:02:34.960Z,79.07
2023-02-16T22:07:39.612Z,79.14
2023-02-16T22:12:43.609Z,79.18
2023-02-16T22:17:49.772Z,79.22
2023-02-16T22:22:53.873Z,79.27
2023-02-16T22:27:57.733Z,79.22
2023-02-16T22:33:01.855Z,78.91
2023-02-16T22:38:05.632Z,78.90
2023-02-16T22:43:09.591Z,78.82
2023-02-16T22:48:13.391Z,78.65
2023-02-16T22:53:17.413Z,78.58
2023-02-16T22:58:21.707Z,78.52
2023-02-16T23:03:25.621Z,78.53
2023-02-16T23:08:29.331Z,78.69
2023-02-16T23:13:34.863Z,78.96
2023-02-16T23:18:40.139Z,78.92
2023-02-16T23:23:44.181Z,79.16
2023-02-16T23:28:55.906Z,79.26
2023-02-16T23:34:02.119Z,79.30
2023-02-16T23:39:09.760Z,79.73
2023-02-16T23:44:15.680Z,79.61
2023-02-16T23:49:41.147Z,79.53
2023-02-16T23:54:44.943Z,79.60
2023-02-16T23:59:48.688Z,79.96
